Time;durP1;ratioP1;P1;durP2;ratioP2;P2;SDS_P1;SDS_P2;PMS_P1;PMS_P2;Temp;Humidity;BMP_temperature;BMP_pressure;BME280_temperature;BME280_humidity;BME280_pressure;Samples;Min_cycle;Max_cycle;Signal;HPM_P1;HPM_P2
2022/03/02 00:00:02;;;;;;;14.73;12.43;;;6.00;70.40;;;;;;5100161;28;20223;-68
2022/03/02 00:02:29;;;;;;;17.45;14.18;;;6.00;70.50;;;;;;5113242;27;20218;-68
2022/03/02 00:04:57;;;;;;;14.77;12.98;;;5.90;71.60;;;;;;5115664;27;20222;-69
2022/03/02 00:07:24;;;;;;;13.63;12.18;;;5.80;71.10;;;;;;5110619;28;20234;-68
2022/03/02 00:09:51;;;;;;;17.27;13.55;;;5.80;71.20;;;;;;5106551;27;20253;-68
2022/03/02 00:12:18;;;;;;;17.73;13.10;;;5.80;71.30;;;;;;5110317;27;20351;-68
2022/03/02 00:14:45;;;;;;;15.48;13.88;;;5.80;71.50;;;;;;5115359;28;20230;-68
2022/03/02 00:17:13;;;;;;;15.98;12.82;;;5.80;71.70;;;;;;5111722;27;20227;-68
2022/03/02 00:19:41;;;;;;;16.20;13.00;;;5.80;71.90;;;;;;5111896;27;20219;-68
2022/03/02 00:22:10;;;;;;;16.90;14.73;;;5.70;72.20;;;;;;5102037;28;20219;-68
2022/03/02 00:24:37;;;;;;;12.82;11.52;;;5.70;72.20;;;;;;5115211;28;20219;-69
2022/03/02 00:27:04;;;;;;;19.25;14.10;;;5.70;72.30;;;;;;5108071;28;20219;-69
2022/03/02 00:29:31;;;;;;;22.55;18.70;;;5.70;72.50;;;;;;5109636;27;20230;-69
2022/03/02 00:31:58;;;;;;;19.85;17.60;;;5.70;72.50;;;;;;5114241;27;20234;-69
2022/03/02 00:34:25;;;;;;;21.80;15.60;;;5.70;72.50;;;;;;5114135;27;20215;-69
2022/03/02 00:36:51;;;;;;;17.55;13.95;;;5.70;72.60;;;;;;5108441;27;20219;-69
2022/03/02 00:39:20;;;;;;;16.88;14.02;;;5.70;72.70;;;;;;5113617;28;20223;-69
2022/03/02 00:41:46;;;;;;;14.73;13.27;;;5.80;72.80;;;;;;5103619;28;20227;-69
2022/03/02 00:44:13;;;;;;;15.70;13.32;;;5.70;72.90;;;;;;5115088;27;20594;-69
2022/03/02 00:46:41;;;;;;;17.52;14.20;;;5.70;73.00;;;;;;5106194;28;20238;-69
2022/03/02 00:49:08;;;;;;;14.52;12.77;;;5.70;73.10;;;;;;5108970;28;20230;-69
2022/03/02 00:51:35;;;;;;;18.42;12.60;;;5.70;73.30;;;;;;5103361;28;20231;-69
2022/03/02 00:54:03;;;;;;;17.42;13.02;;;5.70;73.50;;;;;;5109016;27;20231;-69
2022/03/02 00:56:31;;;;;;;13.98;12.55;;;5.70;73.70;;;;;;5114767;27;20227;-69
2022/03/02 00:58:58;;;;;;;16.10;13.00;;;5.70;73.60;;;;;;5101208;28;20683;-69
2022/03/02 01:01:25;;;;;;;15.63;13.50;;;5.70;73.90;;;;;;5104939;28;20246;-68
2022/03/02 01:03:52;;;;;;;16.15;13.55;;;5.70;74.00;;;;;;5111371;28;20468;-68
2022/03/02 01:06:18;;;;;;;20.45;14.68;;;5.70;74.00;;;;;;5105246;28;20220;-69
2022/03/02 01:08:46;;;;;;;17.10;13.90;;;5.70;74.00;;;;;;5107691;27;20215;-69
2022/03/02 01:11:13;;;;;;;19.45;15.35;;;5.70;74.10;;;;;;5104180;27;20558;-69
2022/03/02 01:13:41;;;;;;;15.80;13.30;;;5.70;74.40;;;;;;5114194;27;20436;-69
2022/03/02 01:16:08;;;;;;;18.90;13.73;;;5.70;74.30;;;;;;5114759;28;20225;-69
2022/03/02 01:18:35;;;;;;;13.60;11.93;;;5.70;74.20;;;;;;5100775;28;20231;-69
2022/03/02 01:21:02;;;;;;;17.90;12.90;;;5.70;74.10;;;;;;5103548;28;20234;-70
2022/03/02 01:23:29;;;;;;;17.98;14.02;;;5.70;74.20;;;;;;5107722;28;20216;-69
2022/03/02 01:25:56;;;;;;;21.75;16.23;;;5.70;74.30;;;;;;5105688;28;20249;-69
2022/03/02 01:28:23;;;;;;;19.40;15.52;;;5.70;74.50;;;;;;5100344;28;20219;-69
2022/03/02 01:30:51;;;;;;;17.83;14.52;;;5.60;74.80;;;;;;5114556;27;20234;-70
2022/03/02 01:33:18;;;;;;;18.63;13.60;;;5.60;75.00;;;;;;5109820;28;20230;-69
2022/03/02 01:35:45;;;;;;;17.35;14.57;;;5.60;75.20;;;;;;5094682;28;20235;-70
2022/03/02 01:38:12;;;;;;;16.50;13.68;;;5.60;75.40;;;;;;5107583;28;20223;-68
2022/03/02 01:40:39;;;;;;;19.35;12.50;;;5.60;75.50;;;;;;5102386;28;20227;-68
2022/03/02 01:43:07;;;;;;;17.20;13.65;;;5.60;75.50;;;;;;5114174;27;20703;-69
2022/03/02 01:45:34;;;;;;;18.05;13.98;;;5.60;75.60;;;;;;5113483;27;20227;-68
2022/03/02 01:48:04;;;;;;;18.73;14.85;;;5.60;75.80;;;;;;5113826;28;20242;-69
2022/03/02 01:50:32;;;;;;;16.50;14.77;;;5.60;75.90;;;;;;5101335;27;20230;-68
2022/03/02 01:52:59;;;;;;;21.55;15.82;;;5.60;75.90;;;;;;5100445;28;20230;-68
2022/03/02 01:55:26;;;;;;;17.80;13.25;;;5.60;76.20;;;;;;5105777;27;20725;-69
2022/03/02 01:57:52;;;;;;;20.13;14.38;;;5.60;76.20;;;;;;5112636;28;20543;-68
2022/03/02 02:00:23;;;;;;;17.58;13.80;;;5.60;76.10;;;;;;5111392;27;20215;-71
2022/03/02 02:02:51;;;;;;;17.98;13.85;;;5.60;76.20;;;;;;5108549;28;20323;-69
2022/03/02 02:05:20;;;;;;;18.23;16.13;;;5.60;76.30;;;;;;5111970;28;20699;-69
2022/03/02 02:07:47;;;;;;;20.88;15.48;;;5.60;76.50;;;;;;5098039;28;20222;-68
2022/03/02 02:10:15;;;;;;;18.55;15.05;;;5.50;76.60;;;;;;5101146;28;20278;-68
2022/03/02 02:12:42;;;;;;;16.73;14.48;;;5.50;76.60;;;;;;5104695;28;20223;-68
2022/03/02 02:15:10;;;;;;;18.33;15.35;;;5.40;77.10;;;;;;5102656;28;20223;-69
2022/03/02 02:17:37;;;;;;;18.33;13.90;;;5.40;77.60;;;;;;5097875;28;20259;-68
2022/03/02 02:20:06;;;;;;;18.00;14.13;;;5.40;77.80;;;;;;5100250;28;20223;-69
2022/03/02 02:22:38;;;;;;;19.35;15.25;;;5.40;77.90;;;;;;5104410;27;20249;-68
2022/03/02 02:25:06;;;;;;;16.63;13.57;;;5.40;77.90;;;;;;5103436;28;20229;-68
2022/03/02 02:27:33;;;;;;;20.67;15.68;;;5.50;77.90;;;;;;5099361;28;20219;-69
2022/03/02 02:30:02;;;;;;;21.52;14.57;;;5.40;78.00;;;;;;5112444;27;20223;-69
2022/03/02 02:32:30;;;;;;;20.95;16.30;;;5.40;78.20;;;;;;5099811;28;20241;-68
2022/03/02 02:34:58;;;;;;;20.88;15.65;;;5.40;78.60;;;;;;5112797;27;20223;-68
2022/03/02 02:37:25;;;;;;;17.98;15.65;;;5.40;78.70;;;;;;5112088;27;20288;-69
2022/03/02 02:40:00;;;;;;;17.08;13.50;;;5.40;79.00;;;;;;5112741;27;20550;-68
2022/03/02 02:42:27;;;;;;;17.88;13.98;;;5.40;79.00;;;;;;5109314;28;20225;-69
2022/03/02 02:44:55;;;;;;;17.35;14.65;;;5.40;79.00;;;;;;5112671;27;20214;-68
2022/03/02 02:47:22;;;;;;;17.23;15.43;;;5.40;79.20;;;;;;5104517;28;20254;-68
2022/03/02 02:49:49;;;;;;;18.50;15.07;;;5.40;79.20;;;;;;5105998;28;20228;-69
2022/03/02 02:52:16;;;;;;;18.95;16.02;;;5.40;79.20;;;;;;5101825;28;20585;-68
2022/03/02 02:54:43;;;;;;;23.77;15.43;;;5.40;79.30;;;;;;5102272;28;20757;-68
2022/03/02 02:57:11;;;;;;;17.23;14.43;;;5.40;79.40;;;;;;5113066;28;20226;-68
2022/03/02 02:59:38;;;;;;;23.05;16.20;;;5.40;79.30;;;;;;5109065;27;20234;-68
2022/03/02 03:02:06;;;;;;;19.33;15.48;;;5.40;79.20;;;;;;5102423;28;20238;-68
2022/03/02 03:04:33;;;;;;;20.00;15.70;;;5.40;79.40;;;;;;5111910;27;20219;-68
2022/03/02 03:07:00;;;;;;;16.85;13.93;;;5.40;79.40;;;;;;5112969;28;20695;-69
2022/03/02 03:09:27;;;;;;;19.92;15.75;;;5.40;79.60;;;;;;5099223;28;20218;-69
2022/03/02 03:11:54;;;;;;;16.50;14.80;;;5.30;79.80;;;;;;5101996;28;20231;-69
2022/03/02 03:14:23;;;;;;;16.00;13.40;;;5.40;80.00;;;;;;5105879;28;20622;-69
2022/03/02 03:16:49;;;;;;;18.30;14.75;;;5.40;80.00;;;;;;5103130;28;20320;-69
2022/03/02 03:19:17;;;;;;;18.17;13.73;;;5.40;80.00;;;;;;5099292;28;20574;-69
2022/03/02 03:21:43;;;;;;;16.88;14.60;;;5.40;79.60;;;;;;5101180;28;20227;-69
2022/03/02 03:24:10;;;;;;;20.33;14.75;;;5.40;79.70;;;;;;5105835;28;20234;-69
2022/03/02 03:26:37;;;;;;;15.95;12.93;;;5.40;79.40;;;;;;5103428;27;20218;-69
2022/03/02 03:29:04;;;;;;;21.63;14.20;;;5.40;79.50;;;;;;5112651;28;20215;-69
2022/03/02 03:31:32;;;;;;;15.55;13.95;;;5.40;79.70;;;;;;5112534;27;20219;-69
2022/03/02 03:33:59;;;;;;;18.45;14.10;;;5.40;79.50;;;;;;5106747;28;20995;-69
2022/03/02 03:36:25;;;;;;;19.75;15.35;;;5.40;79.80;;;;;;5108206;27;20688;-69
2022/03/02 03:38:52;;;;;;;18.20;14.55;;;5.40;79.80;;;;;;5116092;27;20227;-69
2022/03/02 03:41:19;;;;;;;21.27;14.73;;;5.40;80.10;;;;;;5116762;27;20468;-69
2022/03/02 03:43:47;;;;;;;17.25;13.60;;;5.40;80.10;;;;;;5115799;27;20234;-69
2022/03/02 03:46:13;;;;;;;16.05;13.80;;;5.50;80.10;;;;;;5116700;28;20234;-69
2022/03/02 03:48:42;;;;;;;17.95;14.10;;;5.50;80.10;;;;;;5102539;28;20680;-69
2022/03/02 03:51:09;;;;;;;16.85;13.05;;;5.50;80.30;;;;;;5103616;28;20228;-69
2022/03/02 03:53:36;;;;;;;17.42;13.77;;;5.50;80.20;;;;;;5109341;28;20220;-69
2022/03/02 03:56:02;;;;;;;22.70;14.23;;;5.50;80.40;;;;;;5109646;28;20222;-69
2022/03/02 03:58:29;;;;;;;19.13;15.43;;;5.50;80.20;;;;;;5102772;28;20242;-69
2022/03/02 04:00:56;;;;;;;19.92;14.20;;;5.50;80.10;;;;;;5115533;27;20249;-69
2022/03/02 04:03:23;;;;;;;18.33;14.27;;;5.50;79.90;;;;;;5102867;28;20215;-70
2022/03/02 04:05:51;;;;;;;22.10;15.00;;;5.50;79.80;;;;;;5115680;28;20219;-69
2022/03/02 04:08:18;;;;;;;22.13;14.80;;;5.50;79.80;;;;;;5103063;28;20215;-69
2022/03/02 04:10:45;;;;;;;18.38;14.60;;;5.50;79.70;;;;;;5102254;28;20223;-69
2022/03/02 04:13:12;;;;;;;18.35;14.70;;;5.50;79.70;;;;;;5109450;28;20233;-69
2022/03/02 04:15:41;;;;;;;17.77;14.40;;;5.50;79.80;;;;;;5115852;27;20616;-69
2022/03/02 04:18:09;;;;;;;21.05;16.38;;;5.50;80.00;;;;;;5113959;27;20219;-69
2022/03/02 04:20:36;;;;;;;20.65;14.57;;;5.50;80.10;;;;;;5104844;28;20288;-69
2022/03/02 04:23:05;;;;;;;21.20;16.73;;;5.50;80.20;;;;;;5106045;27;20226;-69
2022/03/02 04:25:33;;;;;;;17.83;14.85;;;5.50;80.10;;;;;;5115932;28;20223;-69
2022/03/02 04:28:00;;;;;;;24.48;15.25;;;5.50;80.00;;;;;;5101621;28;20219;-69
2022/03/02 04:30:28;;;;;;;17.15;15.45;;;5.50;80.00;;;;;;5115788;27;20218;-69
2022/03/02 04:32:55;;;;;;;15.45;13.73;;;5.50;80.10;;;;;;5111628;27;20228;-69
2022/03/02 04:35:22;;;;;;;23.58;16.52;;;5.50;79.80;;;;;;5098469;28;20558;-69
2022/03/02 04:37:48;;;;;;;17.92;14.38;;;5.50;79.70;;;;;;5115403;27;20223;-69
2022/03/02 04:40:17;;;;;;;20.67;14.85;;;5.50;79.70;;;;;;5104961;28;20565;-69
2022/03/02 04:42:44;;;;;;;18.92;15.65;;;5.50;79.60;;;;;;5112282;28;20219;-69
2022/03/02 04:45:12;;;;;;;21.48;16.20;;;5.50;79.40;;;;;;5115537;28;20230;-69
2022/03/02 04:47:39;;;;;;;20.67;15.75;;;5.40;79.50;;;;;;5100515;28;20233;-69
2022/03/02 04:50:08;;;;;;;17.80;14.25;;;5.40;79.50;;;;;;5103493;28;20211;-69
2022/03/02 04:52:34;;;;;;;18.88;14.13;;;5.40;79.40;;;;;;5108676;28;20223;-69
2022/03/02 04:55:07;;;;;;;20.67;14.98;;;5.40;79.50;;;;;;5106604;28;20254;-69
2022/03/02 04:57:37;;;;;;;22.55;14.48;;;5.40;79.50;;;;;;5101637;28;20227;-69
2022/03/02 05:00:07;;;;;;;20.50;14.10;;;5.40;79.60;;;;;;5101209;28;20715;-69
2022/03/02 05:02:34;;;;;;;20.33;14.23;;;5.40;79.50;;;;;;5107832;27;20685;-69
2022/03/02 05:05:01;;;;;;;17.77;15.30;;;5.40;79.40;;;;;;5108942;28;20226;-69
2022/03/02 05:07:28;;;;;;;22.95;15.55;;;5.40;79.30;;;;;;5107024;28;20219;-69
2022/03/02 05:09:55;;;;;;;19.73;14.57;;;5.40;79.40;;;;;;5107736;27;20223;-69
2022/03/02 05:12:23;;;;;;;19.40;15.05;;;5.40;79.00;;;;;;5095491;28;20220;-69
2022/03/02 05:14:52;;;;;;;21.70;16.77;;;5.40;79.10;;;;;;5111008;27;20223;-69
2022/03/02 05:17:18;;;;;;;22.10;15.80;;;5.40;79.30;;;;;;5115119;28;20219;-69
2022/03/02 05:19:45;;;;;;;23.33;15.27;;;5.40;79.30;;;;;;5100421;28;20224;-69
2022/03/02 05:22:12;;;;;;;25.20;17.85;;;5.40;79.30;;;;;;5106414;28;20595;-69
2022/03/02 05:24:39;;;;;;;21.13;16.42;;;5.40;79.00;;;;;;5109274;27;20223;-69
2022/03/02 05:27:07;;;;;;;22.80;17.65;;;5.40;79.00;;;;;;5114206;27;20219;-69
2022/03/02 05:29:34;;;;;;;22.92;17.38;;;5.40;78.90;;;;;;5114736;27;20313;-69
2022/03/02 05:32:02;;;;;;;23.52;18.13;;;5.40;78.90;;;;;;5114235;27;20237;-69
2022/03/02 05:34:29;;;;;;;17.75;15.40;;;5.40;79.80;;;;;;5098971;28;20235;-69
2022/03/02 05:36:56;;;;;;;19.80;16.95;;;5.40;78.70;;;;;;5108374;27;20226;-69
2022/03/02 05:39:26;;;;;;;20.70;17.33;;;5.40;78.50;;;;;;5113343;28;20238;-69
2022/03/02 05:41:57;;;;;;;24.73;16.13;;;5.40;78.60;;;;;;5114071;27;20231;-69
2022/03/02 05:44:24;;;;;;;23.73;18.45;;;5.40;78.60;;;;;;5111545;28;20218;-69
2022/03/02 05:46:51;;;;;;;23.65;17.25;;;5.40;78.80;;;;;;5110672;27;20238;-69
2022/03/02 05:49:20;;;;;;;22.33;16.90;;;5.40;78.90;;;;;;5114266;28;20223;-69
2022/03/02 05:51:46;;;;;;;19.30;16.02;;;5.40;78.60;;;;;;5109756;27;20226;-69
2022/03/02 05:54:14;;;;;;;24.48;17.55;;;5.40;78.40;;;;;;5114122;28;20587;-69
2022/03/02 05:56:41;;;;;;;21.60;17.30;;;5.40;78.50;;;;;;5107337;27;20220;-69
2022/03/02 05:59:10;;;;;;;24.35;19.55;;;5.40;78.60;;;;;;5106904;28;20343;-70
2022/03/02 06:01:37;;;;;;;21.25;18.25;;;5.40;78.40;;;;;;5101311;28;20238;-78
2022/03/02 06:04:06;;;;;;;24.35;19.38;;;5.40;78.10;;;;;;5099474;28;20246;-70
2022/03/02 06:06:35;;;;;;;24.73;19.55;;;5.40;78.10;;;;;;5114055;27;20272;-70
2022/03/02 06:09:04;;;;;;;22.70;19.10;;;5.40;78.00;;;;;;5110968;28;20684;-70
2022/03/02 06:11:32;;;;;;;28.15;20.58;;;5.40;78.00;;;;;;5103279;28;20241;-70
2022/03/02 06:13:59;;;;;;;22.95;19.50;;;5.40;78.00;;;;;;5099377;28;20755;-70
2022/03/02 06:16:27;;;;;;;29.00;21.55;;;5.40;78.20;;;;;;5103224;28;20230;-70
2022/03/02 06:18:54;;;;;;;26.30;21.30;;;5.50;78.30;;;;;;5106646;28;20224;-70
2022/03/02 06:21:25;;;;;;;30.33;20.63;;;5.50;78.40;;;;;;5104086;28;20223;-70
2022/03/02 06:23:55;;;;;;;27.77;20.15;;;5.50;78.40;;;;;;5099321;28;20313;-70
2022/03/02 06:26:23;;;;;;;25.98;20.73;;;5.50;78.30;;;;;;5101542;28;20231;-70
2022/03/02 06:28:50;;;;;;;27.65;21.55;;;5.60;78.40;;;;;;5108611;27;20296;-70
2022/03/02 06:31:18;;;;;;;32.55;22.25;;;5.60;78.50;;;;;;5113373;27;20226;-70
2022/03/02 06:33:46;;;;;;;27.02;20.95;;;5.60;78.50;;;;;;5107680;28;20227;-70
2022/03/02 06:36:13;;;;;;;27.70;19.70;;;5.60;78.50;;;;;;5107429;27;20222;-70
2022/03/02 06:38:40;;;;;;;25.92;19.40;;;5.60;78.40;;;;;;5112435;28;20227;-70
2022/03/02 06:41:22;;;;;;;26.23;19.70;;;5.60;78.50;;;;;;5108618;28;20564;-70
2022/03/02 06:43:57;;;;;;;24.55;20.52;;;5.60;78.50;;;;;;5113069;28;20569;-71
2022/03/02 06:46:32;;;;;;;29.10;22.80;;;5.60;78.40;;;;;;5106630;28;20290;-69
2022/03/02 06:49:08;;;;;;;34.13;22.73;;;5.60;78.10;;;;;;5106629;28;20653;-69
2022/03/02 06:51:41;;;;;;;27.77;20.98;;;5.60;78.20;;;;;;5113408;28;20252;-70
2022/03/02 06:54:13;;;;;;;29.30;20.73;;;5.70;78.50;;;;;;5112471;28;20230;-70
2022/03/02 06:56:49;;;;;;;27.65;22.17;;;5.70;78.40;;;;;;5100341;28;20238;-70
2022/03/02 06:59:27;;;;;;;29.60;22.90;;;5.70;78.50;;;;;;5111594;28;20317;-70
2022/03/02 07:02:01;;;;;;;30.65;22.85;;;5.70;78.70;;;;;;5110284;28;20223;-70
2022/03/02 07:04:28;;;;;;;29.27;23.85;;;5.70;78.40;;;;;;5112326;28;20207;-70
2022/03/02 07:06:56;;;;;;;28.83;22.70;;;5.70;78.20;;;;;;5112115;27;20230;-70
2022/03/02 07:09:24;;;;;;;30.63;22.77;;;5.70;78.00;;;;;;5112158;27;20292;-70
2022/03/02 07:11:52;;;;;;;32.95;20.83;;;5.70;77.70;;;;;;5112771;27;20231;-70
2022/03/02 07:14:19;;;;;;;30.83;22.38;;;5.70;78.10;;;;;;5112971;27;20226;-70
2022/03/02 07:16:47;;;;;;;31.23;22.85;;;5.70;77.70;;;;;;5112927;27;20697;-70
2022/03/02 07:19:14;;;;;;;34.17;22.92;;;5.70;77.60;;;;;;5112558;27;20223;-70
2022/03/02 07:21:45;;;;;;;40.58;28.15;;;5.70;77.70;;;;;;5113027;27;20246;-70
2022/03/02 07:24:17;;;;;;;38.92;27.15;;;5.70;77.50;;;;;;5112431;27;20223;-70
2022/03/02 07:26:46;;;;;;;42.22;25.20;;;5.70;77.60;;;;;;5112987;27;20227;-70
2022/03/02 07:29:15;;;;;;;31.55;25.30;;;5.60;77.70;;;;;;5112540;27;20223;-70
2022/03/02 07:31:43;;;;;;;31.88;23.40;;;5.60;77.80;;;;;;5112682;27;20284;-70
2022/03/02 07:34:12;;;;;;;29.52;23.50;;;5.60;78.00;;;;;;5112216;27;20223;-70
2022/03/02 07:36:41;;;;;;;39.85;25.45;;;5.60;78.90;;;;;;5112800;27;20242;-70
2022/03/02 07:39:09;;;;;;;35.15;24.10;;;5.60;78.80;;;;;;5112464;27;20284;-70
2022/03/02 07:41:36;;;;;;;36.35;25.92;;;5.60;78.90;;;;;;5112768;27;20293;-70
2022/03/02 07:44:03;;;;;;;27.10;22.70;;;5.60;78.80;;;;;;5112347;27;20227;-70
2022/03/02 07:46:33;;;;;;;31.38;23.48;;;5.60;78.80;;;;;;5112889;27;20219;-70
2022/03/02 07:49:00;;;;;;;37.38;24.77;;;5.60;78.60;;;;;;5112243;27;20230;-70
2022/03/02 07:51:28;;;;;;;33.33;22.88;;;5.60;79.40;;;;;;5112654;27;20227;-70
2022/03/02 07:54:00;;;;;;;30.40;24.48;;;5.60;79.60;;;;;;5112626;27;20234;-70
2022/03/02 07:56:29;;;;;;;36.05;24.73;;;5.60;79.70;;;;;;5112043;27;20235;-70
2022/03/02 07:59:01;;;;;;;29.08;22.33;;;5.60;79.60;;;;;;5112292;27;20223;-69
2022/03/02 08:01:28;;;;;;;27.98;22.25;;;5.60;79.40;;;;;;5112138;27;20215;-69
2022/03/02 08:03:58;;;;;;;29.25;21.13;;;5.70;79.80;;;;;;5112103;27;20681;-69
2022/03/02 08:06:25;;;;;;;32.10;22.73;;;5.80;79.80;;;;;;5091878;28;20227;-69
2022/03/02 08:08:52;;;;;;;42.38;24.35;;;5.80;79.70;;;;;;5092331;28;20223;-70
2022/03/02 08:11:20;;;;;;;34.58;24.70;;;5.90;79.80;;;;;;5091642;28;20232;-69
2022/03/02 08:13:47;;;;;;;28.48;22.48;;;6.00;80.00;;;;;;5092196;28;20718;-70
2022/03/02 08:16:16;;;;;;;33.75;22.95;;;6.10;80.00;;;;;;5091665;28;20231;-71
2022/03/02 08:18:43;;;;;;;37.53;23.85;;;6.10;79.80;;;;;;5092118;28;20224;-70
2022/03/02 08:21:17;;;;;;;27.40;21.98;;;6.20;79.40;;;;;;5093105;28;20227;-70
2022/03/02 08:23:46;;;;;;;31.13;24.55;;;6.30;79.10;;;;;;5095870;28;20246;-69
2022/03/02 08:26:13;;;;;;;28.15;23.90;;;6.30;78.90;;;;;;5095299;28;20224;-70
2022/03/02 08:28:43;;;;;;;29.10;21.85;;;6.40;78.80;;;;;;5096374;28;20215;-70
2022/03/02 08:31:12;;;;;;;28.95;23.13;;;6.40;78.70;;;;;;5115661;27;20227;-70
2022/03/02 08:33:42;;;;;;;32.13;24.63;;;6.40;78.40;;;;;;5116128;27;20219;-70
2022/03/02 08:36:11;;;;;;;32.03;24.30;;;6.40;78.00;;;;;;5115333;27;20233;-70
2022/03/02 08:38:42;;;;;;;29.27;21.38;;;6.40;78.20;;;;;;5115965;27;20241;-71
2022/03/02 08:41:11;;;;;;;28.95;22.35;;;6.50;78.10;;;;;;5115539;27;20227;-71
2022/03/02 08:43:38;;;;;;;32.03;25.25;;;6.60;78.00;;;;;;5115745;27;20222;-70
2022/03/02 08:46:07;;;;;;;32.28;23.95;;;6.60;77.80;;;;;;5115783;27;20230;-70
2022/03/02 08:48:34;;;;;;;36.08;25.42;;;6.60;77.70;;;;;;5115722;27;20230;-70
2022/03/02 08:51:02;;;;;;;35.17;26.05;;;6.70;77.30;;;;;;5115552;27;20250;-71
2022/03/02 08:53:32;;;;;;;32.28;23.55;;;6.70;77.20;;;;;;5115052;27;20700;-69
2022/03/02 08:56:01;;;;;;;33.22;25.20;;;6.80;77.20;;;;;;5115626;27;20231;-69
2022/03/02 08:58:29;;;;;;;32.22;25.90;;;6.90;77.10;;;;;;5115004;27;20227;-69
2022/03/02 09:00:59;;;;;;;32.92;24.63;;;6.90;76.80;;;;;;5115210;27;20318;-69
2022/03/02 09:03:27;;;;;;;27.50;22.60;;;7.00;76.80;;;;;;5115146;27;20215;-69
2022/03/02 09:05:55;;;;;;;26.52;22.70;;;7.10;76.50;;;;;;5098147;28;20223;-69
2022/03/02 09:08:22;;;;;;;35.28;24.73;;;7.10;76.10;;;;;;5094079;28;20216;-70
2022/03/02 09:10:51;;;;;;;29.77;21.13;;;7.20;76.00;;;;;;5094866;28;20231;-70
2022/03/02 09:13:18;;;;;;;24.50;19.80;;;7.30;75.30;;;;;;5094451;28;20219;-69
2022/03/02 09:15:45;;;;;;;24.40;19.23;;;7.40;74.70;;;;;;5094823;28;20232;-70
2022/03/02 09:18:11;;;;;;;29.73;21.70;;;7.40;74.30;;;;;;5094454;28;20313;-70
2022/03/02 09:20:41;;;;;;;33.50;23.55;;;7.40;74.00;;;;;;5094509;28;20230;-69
2022/03/02 09:23:08;;;;;;;32.47;21.98;;;7.50;73.80;;;;;;5094587;28;20673;-69
2022/03/02 09:25:39;;;;;;;25.77;19.90;;;7.50;73.50;;;;;;5094252;28;20219;-69
2022/03/02 09:28:11;;;;;;;28.23;20.08;;;7.60;73.40;;;;;;5094441;28;20234;-70
2022/03/02 09:30:38;;;;;;;24.45;20.73;;;7.60;72.40;;;;;;5111561;27;20284;-69
2022/03/02 09:33:13;;;;;;;22.52;18.60;;;7.70;72.00;;;;;;5114486;27;20215;-70
2022/03/02 09:35:42;;;;;;;23.58;20.63;;;7.70;71.60;;;;;;5114572;27;20748;-69
2022/03/02 09:38:08;;;;;;;21.63;17.33;;;7.80;71.50;;;;;;5114656;27;20215;-69
2022/03/02 09:40:35;;;;;;;26.05;18.88;;;7.90;71.00;;;;;;5114303;27;20239;-70
2022/03/02 09:43:05;;;;;;;25.17;19.70;;;7.90;70.70;;;;;;5114773;27;20287;-70
2022/03/02 09:45:34;;;;;;;24.90;18.80;;;8.00;70.10;;;;;;5114074;27;20696;-70
2022/03/02 09:48:04;;;;;;;22.42;18.02;;;8.00;69.00;;;;;;5114755;27;20233;-70
2022/03/02 09:50:34;;;;;;;24.60;18.98;;;8.10;68.60;;;;;;5114021;27;20222;-70
2022/03/02 09:53:03;;;;;;;29.45;18.67;;;8.10;67.80;;;;;;5114242;27;20692;-70
2022/03/02 09:55:30;;;;;;;23.27;18.45;;;8.10;67.00;;;;;;5113885;27;20219;-70
2022/03/02 09:58:00;;;;;;;23.65;18.42;;;8.10;67.00;;;;;;5114388;27;20567;-70
2022/03/02 10:00:29;;;;;;;23.77;18.00;;;8.20;66.40;;;;;;5113758;27;20257;-70
2022/03/02 10:02:59;;;;;;;21.30;16.25;;;8.20;64.90;;;;;;5113451;27;20288;-70
2022/03/02 10:05:29;;;;;;;25.92;18.08;;;8.20;64.40;;;;;;5113681;27;20232;-70
2022/03/02 10:07:58;;;;;;;23.38;16.45;;;8.20;63.90;;;;;;5114073;27;20241;-70
2022/03/02 10:10:27;;;;;;;22.10;17.10;;;8.30;64.10;;;;;;5113393;27;20222;-70
2022/03/02 10:12:56;;;;;;;23.95;15.65;;;8.30;63.20;;;;;;5114053;27;20246;-70
2022/03/02 10:15:24;;;;;;;19.17;16.98;;;8.30;62.40;;;;;;5113422;27;20219;-70
2022/03/02 10:17:53;;;;;;;20.52;16.42;;;8.30;62.00;;;;;;5113930;27;20242;-70
2022/03/02 10:20:23;;;;;;;21.98;17.45;;;8.30;62.00;;;;;;5113490;27;20227;-70
2022/03/02 10:23:13;;;;;;;20.13;14.82;;;8.40;62.60;;;;;;5113627;27;20223;-70
2022/03/02 10:25:55;;;;;;;17.23;13.85;;;8.40;61.30;;;;;;5113287;27;20230;-70
2022/03/02 10:28:28;;;;;;;20.00;13.70;;;8.50;61.20;;;;;;5113277;27;20223;-70
2022/03/02 10:31:20;;;;;;;22.17;16.05;;;8.60;60.60;;;;;;5113589;27;20288;-70
2022/03/02 10:33:51;;;;;;;18.63;14.30;;;8.60;58.90;;;;;;5113278;27;20564;-70
2022/03/02 10:36:21;;;;;;;20.45;14.95;;;8.70;58.70;;;;;;5113430;27;20558;-70
2022/03/02 10:38:50;;;;;;;24.20;17.88;;;8.80;58.70;;;;;;5113175;27;21142;-70
2022/03/02 10:41:21;;;;;;;21.17;15.10;;;8.70;58.00;;;;;;5112479;27;20261;-68
2022/03/02 10:43:58;;;;;;;16.30;14.60;;;8.80;58.30;;;;;;5112531;27;20300;-70
2022/03/02 10:46:26;;;;;;;20.58;14.75;;;8.90;58.40;;;;;;5113097;27;20250;-70
2022/03/02 10:49:04;;;;;;;17.90;13.90;;;9.00;58.00;;;;;;5113406;27;20218;-70
2022/03/02 10:51:34;;;;;;;15.50;13.48;;;9.00;56.20;;;;;;5112833;27;20237;-69
2022/03/02 10:54:04;;;;;;;18.50;13.60;;;9.00;56.70;;;;;;5113120;27;20301;-69
2022/03/02 10:56:34;;;;;;;18.30;14.15;;;9.10;56.30;;;;;;5112808;27;20237;-69
2022/03/02 10:59:04;;;;;;;18.52;13.93;;;9.10;55.20;;;;;;5113471;27;20225;-70
2022/03/02 11:01:31;;;;;;;19.17;13.50;;;9.10;56.00;;;;;;5112519;27;20227;-70
2022/03/02 11:03:58;;;;;;;20.10;14.60;;;9.00;55.00;;;;;;5113474;27;20279;-69
2022/03/02 11:06:27;;;;;;;17.70;15.40;;;8.90;54.50;;;;;;5113232;27;20219;-69
2022/03/02 11:08:55;;;;;;;17.08;14.10;;;8.90;54.70;;;;;;5112672;27;20226;-69
2022/03/02 11:11:26;;;;;;;17.67;14.90;;;8.90;55.00;;;;;;5112607;27;20222;-70
2022/03/02 11:13:55;;;;;;;16.40;14.70;;;8.90;55.20;;;;;;5112459;27;20273;-69
2022/03/02 11:16:25;;;;;;;16.52;13.45;;;9.00;55.60;;;;;;5112795;27;20219;-70
2022/03/02 11:18:53;;;;;;;18.92;14.57;;;9.00;55.90;;;;;;5112291;27;20234;-70
2022/03/02 11:21:23;;;;;;;20.70;16.38;;;9.10;56.30;;;;;;5112734;27;20580;-69
2022/03/02 11:23:52;;;;;;;24.67;15.77;;;9.10;56.30;;;;;;5112372;27;20309;-70
2022/03/02 11:26:24;;;;;;;19.58;15.27;;;9.10;56.20;;;;;;5112916;27;20222;-70
2022/03/02 11:28:52;;;;;;;24.30;16.88;;;9.10;55.90;;;;;;5112702;27;20222;-69
2022/03/02 11:31:23;;;;;;;19.33;16.58;;;9.10;55.00;;;;;;5112759;27;20242;-69
2022/03/02 11:33:51;;;;;;;19.15;16.48;;;9.00;55.10;;;;;;5112487;27;20218;-69
2022/03/02 11:36:19;;;;;;;18.33;14.95;;;8.90;54.70;;;;;;5112918;27;20533;-69
2022/03/02 11:38:51;;;;;;;19.52;16.45;;;8.90;54.90;;;;;;5112218;27;20807;-69
2022/03/02 11:41:33;;;;;;;17.08;14.07;;;8.90;54.80;;;;;;5112694;27;20700;-70
2022/03/02 11:44:00;;;;;;;22.25;15.82;;;9.00;54.80;;;;;;5112590;27;20237;-70
2022/03/02 11:46:27;;;;;;;19.23;15.27;;;8.90;54.80;;;;;;5112878;27;20673;-70
2022/03/02 11:48:54;;;;;;;16.10;14.23;;;8.90;55.00;;;;;;5112455;27;20226;-69
2022/03/02 11:51:23;;;;;;;18.15;15.07;;;9.00;55.10;;;;;;5112762;27;20310;-69
2022/03/02 11:53:54;;;;;;;16.60;13.65;;;9.10;55.20;;;;;;5112165;27;20220;-70
2022/03/02 11:56:24;;;;;;;24.92;17.02;;;9.10;55.20;;;;;;5114568;27;20330;-70
2022/03/02 11:59:04;;;;;;;19.67;15.15;;;9.10;54.90;;;;;;5116345;27;20222;-70
2022/03/02 12:01:46;;;;;;;16.27;14.48;;;9.20;55.00;;;;;;5116645;27;20230;-70
2022/03/02 12:04:16;;;;;;;19.05;14.20;;;9.10;54.10;;;;;;5116716;27;20241;-70
2022/03/02 12:06:46;;;;;;;15.63;13.95;;;9.20;54.30;;;;;;5116068;27;21061;-70
2022/03/02 12:09:24;;;;;;;15.55;13.48;;;9.20;54.10;;;;;;5116311;27;20240;-69
2022/03/02 12:11:53;;;;;;;18.15;15.20;;;9.30;53.10;;;;;;5116125;27;20229;-70
2022/03/02 12:14:20;;;;;;;15.77;13.77;;;9.30;53.10;;;;;;5116555;27;20223;-70
2022/03/02 12:16:51;;;;;;;15.55;13.57;;;9.40;52.30;;;;;;5115917;27;20231;-70
2022/03/02 12:19:24;;;;;;;16.25;12.95;;;9.40;52.10;;;;;;5116291;27;20314;-69
2022/03/02 12:21:54;;;;;;;13.10;11.70;;;9.50;52.30;;;;;;5115579;27;20226;-69
2022/03/02 12:24:29;;;;;;;17.65;12.77;;;9.50;51.50;;;;;;5116239;27;20219;-70
2022/03/02 12:27:07;;;;;;;14.60;12.13;;;9.60;51.10;;;;;;5115644;27;21037;-69
2022/03/02 12:29:36;;;;;;;16.58;11.93;;;9.60;49.90;;;;;;5115502;27;20704;-69
2022/03/02 12:32:14;;;;;;;15.27;12.60;;;9.70;50.30;;;;;;5115920;27;20234;-69
2022/03/02 12:34:43;;;;;;;18.48;13.98;;;9.70;50.50;;;;;;5115733;27;20230;-71
2022/03/02 12:37:12;;;;;;;17.90;13.73;;;9.70;50.20;;;;;;5115797;27;20227;-70
2022/03/02 12:39:39;;;;;;;13.82;12.32;;;9.70;50.30;;;;;;5115485;27;20227;-70
2022/03/02 12:42:09;;;;;;;15.63;12.27;;;9.70;50.30;;;;;;5115782;27;20303;-70